createdAt,value
2023-02-12T00:02:35.874Z,7.40
2023-02-12T00:07:31.287Z,7.40
2023-02-12T00:12:23.261Z,7.40
2023-02-12T00:17:15.204Z,7.50
2023-02-12T00:22:07.210Z,7.40
2023-02-12T00:26:59.137Z,7.50
2023-02-12T00:31:51.379Z,7.40
2023-02-12T00:36:43.419Z,7.40
2023-02-12T00:41:37.916Z,7.40
2023-02-12T00:46:29.946Z,7.40
2023-02-12T00:51:22.319Z,7.40
2023-02-12T00:56:14.330Z,7.40
2023-02-12T01:01:06.335Z,7.40
2023-02-12T01:05:58.636Z,7.40
2023-02-12T01:10:59.666Z,7.40
2023-02-12T01:16:19.802Z,7.40
2023-02-12T01:21:20.924Z,7.40
2023-02-12T01:26:14.103Z,7.40
2023-02-12T01:31:17.712Z,7.50
2023-02-12T01:36:11.184Z,7.50
2023-02-12T01:41:05.739Z,7.50
2023-02-12T01:46:00.029Z,7.50
2023-02-12T01:50:53.487Z,7.50
2023-02-12T01:55:47.947Z,7.40
2023-02-12T02:00:40.162Z,7.50
2023-02-12T02:12:17.990Z,7.50
2023-02-12T02:17:21.674Z,7.50
2023-02-12T02:22:26.424Z,7.50
2023-02-12T02:27:40.168Z,7.50
2023-02-12T02:32:51.277Z,7.50
2023-02-12T02:38:06.459Z,7.50
2023-02-12T02:43:17.793Z,7.50
2023-02-12T02:48:25.159Z,7.50
2023-02-12T02:53:28.403Z,7.50
2023-02-12T02:58:35.870Z,7.50
2023-02-12T03:03:51.181Z,7.50
2023-02-12T03:08:50.853Z,7.50
2023-02-12T03:13:50.946Z,7.50
2023-02-12T03:19:05.362Z,7.60
2023-02-12T03:24:22.495Z,7.50
2023-02-12T03:29:14.732Z,7.60
2023-02-12T03:34:28.168Z,7.60
2023-02-12T03:39:35.747Z,7.60
2023-02-12T03:44:51.589Z,7.60
2023-02-12T03:50:00.946Z,7.50
2023-02-12T03:54:53.015Z,7.50
2023-02-12T03:59:46.036Z,7.50
2023-02-12T04:04:39.152Z,7.50
2023-02-12T04:09:32.107Z,7.50
2023-02-12T04:14:53.294Z,7.50
2023-02-12T04:20:11.620Z,7.50
2023-02-12T04:25:51.258Z,7.50
2023-02-12T04:31:11.704Z,7.50
2023-02-12T04:36:15.643Z,7.50
2023-02-12T04:41:08.373Z,7.60
2023-02-12T04:46:03.318Z,7.60
2023-02-12T04:50:57.963Z,7.60
2023-02-12T04:55:50.825Z,7.60
2023-02-12T05:00:44.094Z,7.60
2023-02-12T05:05:38.505Z,7.60
2023-02-12T05:10:30.631Z,7.60
2023-02-12T05:15:24.095Z,7.50
2023-02-12T05:20:17.638Z,7.50
2023-02-12T05:25:11.248Z,7.40
2023-02-12T05:30:05.763Z,7.40
2023-02-12T05:34:57.730Z,7.50
2023-02-12T05:39:50.594Z,7.50
2023-02-12T05:44:43.806Z,7.50
2023-02-12T05:49:35.883Z,7.40
2023-02-12T05:54:28.051Z,7.40
2023-02-12T05:59:22.738Z,7.40
2023-02-12T06:04:18.131Z,7.40
2023-02-12T06:09:11.893Z,7.40
2023-02-12T06:14:05.617Z,7.40
2023-02-12T06:18:58.526Z,7.40
2023-02-12T06:23:51.911Z,7.40
2023-02-12T06:28:44.593Z,7.40
2023-02-12T06:33:36.576Z,7.50
2023-02-12T06:38:28.553Z,7.40
2023-02-12T06:43:20.609Z,7.40
2023-02-12T06:48:12.580Z,7.50
2023-02-12T06:53:04.640Z,7.50
2023-02-12T06:57:56.637Z,7.50
2023-02-12T07:02:54.489Z,7.50
2023-02-12T07:07:46.491Z,7.60
2023-02-12T07:12:38.488Z,7.60
2023-02-12T07:17:31.959Z,7.70
2023-02-12T07:22:24.298Z,7.70
2023-02-12T07:27:16.433Z,7.70
2023-02-12T07:32:08.473Z,7.80
2023-02-12T07:37:00.497Z,7.90
2023-02-12T07:41:52.539Z,7.90
2023-02-12T07:46:48.607Z,8.00
2023-02-12T07:51:41.584Z,8.00
2023-02-12T07:56:35.487Z,8.00
2023-02-12T08:01:30.733Z,8.10
2023-02-12T08:06:26.369Z,8.20
2023-02-12T08:11:18.927Z,8.30
2023-02-12T08:16:13.742Z,8.40
2023-02-12T08:21:18.272Z,8.50
2023-02-12T08:26:11.673Z,8.60
2023-02-12T08:37:00.100Z,8.80
2023-02-12T08:41:55.039Z,8.90
2023-02-12T08:46:50.298Z,8.90
2023-02-12T08:51:45.654Z,8.90
2023-02-12T08:56:38.197Z,9.00
2023-02-12T09:01:33.357Z,9.00
2023-02-12T09:06:31.789Z,9.10
2023-02-12T09:11:32.189Z,9.30
2023-02-12T09:16:24.469Z,9.60
2023-02-12T09:21:19.817Z,9.70
2023-02-12T09:26:16.486Z,9.80
2023-02-12T09:31:10.841Z,10.10
2023-02-12T09:36:05.523Z,10.10
2023-02-12T09:41:27.445Z,10.00
2023-02-12T09:46:34.705Z,10.00
2023-02-12T09:51:29.334Z,10.10
2023-02-12T09:56:26.889Z,10.40
2023-02-12T10:01:23.209Z,10.80
2023-02-12T10:06:19.697Z,11.30
2023-02-12T10:11:52.856Z,11.40
2023-02-12T10:16:57.018Z,11.30
2023-02-12T10:22:22.565Z,11.30
2023-02-12T10:27:25.860Z,11.20
2023-02-12T10:32:29.868Z,11.20
2023-02-12T10:37:44.171Z,11.10
2023-02-12T10:42:43.432Z,11.10
2023-02-12T10:47:35.574Z,11.20
2023-02-12T10:53:05.276Z,11.20
2023-02-12T10:57:59.032Z,11.20
2023-02-12T11:03:11.310Z,11.30
2023-02-12T11:08:05.727Z,11.30
2023-02-12T11:13:00.135Z,11.50
2023-02-12T11:18:00.308Z,11.60
2023-02-12T11:23:01.378Z,12.00
2023-02-12T11:28:04.226Z,12.30
2023-02-12T11:33:23.255Z,12.60
2023-02-12T11:38:24.633Z,12.40
2023-02-12T11:43:19.985Z,12.10
2023-02-12T11:48:27.525Z,12.10
2023-02-12T11:53:36.008Z,12.20
2023-02-12T11:58:29.145Z,12.20
2023-02-12T12:03:27.190Z,12.20
2023-02-12T12:08:25.634Z,12.20
2023-02-12T12:13:30.276Z,12.10
2023-02-12T12:18:49.558Z,12.00
2023-02-12T12:23:48.680Z,11.90
2023-02-12T12:28:54.337Z,11.60
2023-02-12T12:34:20.478Z,11.30
2023-02-12T12:39:28.399Z,11.20
2023-02-12T12:44:47.268Z,11.00
2023-02-12T12:49:51.509Z,10.80
2023-02-12T12:55:16.489Z,10.80
2023-02-12T13:00:28.982Z,10.70
2023-02-12T13:05:38.948Z,10.70
2023-02-12T13:10:54.567Z,10.60
2023-02-12T13:16:12.565Z,10.50
2023-02-12T13:21:15.042Z,10.50
2023-02-12T13:26:12.904Z,10.40
2023-02-12T13:31:30.097Z,10.30
2023-02-12T13:36:21.837Z,10.30
2023-02-12T13:41:15.934Z,10.40
2023-02-12T13:46:14.197Z,10.50
2023-02-12T13:51:29.667Z,10.70
2023-02-12T13:56:25.963Z,10.60
2023-02-12T14:01:49.658Z,10.70
2023-02-12T14:07:09.322Z,10.80
2023-02-12T14:12:04.457Z,10.90
2023-02-12T14:16:57.372Z,10.80
2023-02-12T14:21:49.427Z,10.70
2023-02-12T14:26:41.661Z,10.50
2023-02-12T14:31:36.476Z,10.50
2023-02-12T14:36:31.379Z,10.40
2023-02-12T14:41:38.329Z,10.40
2023-02-12T14:46:36.457Z,10.30
2023-02-12T14:51:34.447Z,10.20
2023-02-12T14:56:27.102Z,10.10
2023-02-12T15:01:28.501Z,10.00
2023-02-12T15:06:25.217Z,10.00
2023-02-12T15:11:39.436Z,9.90
2023-02-12T15:16:46.577Z,9.80
2023-02-12T15:21:39.253Z,9.70
2023-02-12T15:26:36.505Z,9.70
2023-02-12T15:31:30.936Z,9.60
2023-02-12T15:36:26.321Z,9.60
2023-02-12T15:41:35.613Z,9.50
2023-02-12T15:46:28.357Z,9.40
2023-02-12T15:51:38.536Z,9.30
2023-02-12T15:56:32.015Z,9.20
2023-02-12T16:01:29.714Z,9.30
2023-02-12T16:06:23.181Z,9.20
2023-02-12T16:11:20.550Z,9.00
2023-02-12T16:16:13.738Z,9.00
2023-02-12T16:21:23.005Z,8.90
2023-02-12T16:26:26.115Z,8.90
2023-02-12T16:31:28.230Z,8.90
2023-02-12T16:36:20.363Z,8.90
2023-02-12T16:41:28.206Z,8.90
2023-02-12T16:46:20.533Z,8.90
2023-02-12T16:51:34.523Z,8.80
2023-02-12T16:56:30.803Z,8.80
2023-02-12T17:01:34.003Z,8.80
2023-02-12T17:06:28.751Z,8.70
2023-02-12T17:11:23.236Z,8.70
2023-02-12T17:16:29.462Z,8.70
2023-02-12T17:21:27.375Z,8.60
2023-02-12T17:26:19.367Z,8.60
2023-02-12T17:31:12.279Z,8.60
2023-02-12T17:36:04.737Z,8.60
2023-02-12T17:40:57.555Z,8.60
2023-02-12T17:45:50.072Z,8.60
2023-02-12T17:50:43.324Z,8.50
2023-02-12T17:55:41.055Z,8.50
2023-02-12T18:00:33.085Z,8.60
2023-02-12T18:05:26.370Z,8.60
2023-02-12T18:10:18.478Z,8.60
2023-02-12T18:15:10.804Z,8.50
2023-02-12T18:20:02.922Z,8.50
2023-02-12T18:24:57.640Z,8.50
2023-02-12T18:29:49.657Z,8.50
2023-02-12T18:34:43.398Z,8.50
2023-02-12T18:39:35.438Z,8.50
2023-02-12T18:44:27.524Z,8.50
2023-02-12T18:49:19.480Z,8.50
2023-02-12T18:54:13.695Z,8.50
2023-02-12T18:59:06.796Z,8.50
2023-02-12T19:04:00.755Z,8.40
2023-02-12T19:09:00.717Z,8.30
2023-02-12T19:13:53.386Z,8.40
2023-02-12T19:18:48.802Z,8.40
2023-02-12T19:23:40.940Z,8.30
2023-02-12T19:28:34.446Z,8.30
2023-02-12T19:33:26.643Z,8.30
2023-02-12T19:38:19.017Z,8.30
2023-02-12T19:43:11.053Z,8.30
2023-02-12T19:48:03.050Z,8.30
2023-02-12T19:52:55.110Z,8.30
2023-02-12T19:57:47.999Z,8.30
2023-02-12T20:02:42.247Z,8.20
2023-02-12T20:07:35.593Z,8.20
2023-02-12T20:12:27.574Z,8.10
2023-02-12T20:17:20.298Z,8.00
2023-02-12T20:22:12.286Z,8.00
2023-02-12T20:27:04.827Z,8.10
2023-02-12T20:31:57.075Z,8.00
2023-02-12T20:43:38.568Z,8.00
2023-02-12T20:48:30.561Z,7.90
2023-02-12T20:53:22.583Z,7.90
2023-02-12T20:58:14.667Z,7.90
2023-02-12T21:03:06.985Z,7.90
2023-02-12T21:07:59.130Z,7.80
2023-02-12T21:12:51.065Z,7.80
2023-02-12T21:17:44.664Z,7.70
2023-02-12T21:22:36.633Z,7.50
2023-02-12T21:27:28.723Z,7.40
2023-02-12T21:32:20.881Z,7.40
2023-02-12T21:37:12.973Z,7.40
2023-02-12T21:42:05.150Z,7.40
2023-02-12T21:47:00.322Z,7.50
2023-02-12T21:51:54.664Z,7.40
2023-02-12T21:56:47.992Z,7.40
2023-02-12T22:01:45.833Z,7.40
2023-02-12T22:06:39.952Z,7.40
2023-02-12T22:11:33.173Z,7.20
2023-02-12T22:16:27.473Z,7.10
2023-02-12T22:21:19.812Z,7.00
2023-02-12T22:26:14.619Z,7.10
2023-02-12T22:31:07.673Z,7.20
2023-02-12T22:36:08.042Z,7.20
2023-02-12T22:41:00.779Z,7.30
2023-02-12T22:45:52.874Z,7.40
2023-02-12T22:50:44.860Z,7.40
2023-02-12T22:55:37.082Z,7.40
2023-02-12T23:00:29.276Z,7.50
2023-02-12T23:05:21.364Z,7.50
2023-02-12T23:10:16.886Z,7.50
2023-02-12T23:15:09.185Z,7.50
2023-02-12T23:20:01.213Z,7.50
2023-02-12T23:24:53.201Z,7.60
2023-02-12T23:29:45.221Z,7.50
2023-02-12T23:34:37.280Z,7.40
2023-02-12T23:39:29.273Z,7.50
2023-02-12T23:44:21.349Z,7.60
2023-02-12T23:49:13.360Z,7.60
2023-02-12T23:54:05.459Z,7.60
2023-02-12T23:58:57.722Z,7.60
